createdAt,value
2022-12-09T00:00:33.511Z,15.90
2022-12-09T00:03:37.161Z,14.87
2022-12-09T00:06:40.576Z,16.20
2022-12-09T00:09:45.081Z,15.80
2022-12-09T00:12:48.318Z,17.17
2022-12-09T00:15:51.550Z,15.00
2022-12-09T00:18:55.236Z,16.10
2022-12-09T00:21:58.487Z,15.10
2022-12-09T00:25:03.092Z,14.93
2022-12-09T00:28:06.589Z,14.70
2022-12-09T00:31:13.630Z,14.60
2022-12-09T00:34:16.779Z,14.67
2022-12-09T00:37:19.867Z,15.73
2022-12-09T00:40:24.480Z,16.07
2022-12-09T00:43:27.670Z,16.20
2022-12-09T00:46:31.040Z,15.80
2022-12-09T00:49:34.222Z,15.27
2022-12-09T00:52:37.333Z,14.82
2022-12-09T00:55:42.120Z,17.10
2022-12-09T00:58:45.333Z,15.57
2022-12-09T01:01:48.691Z,14.13
2022-12-09T01:04:53.170Z,15.83
2022-12-09T01:07:56.852Z,17.53
2022-12-09T01:11:01.666Z,16.50
2022-12-09T01:14:05.409Z,16.13
2022-12-09T01:17:08.700Z,14.50
2022-12-09T01:20:12.485Z,16.20
2022-12-09T01:23:15.735Z,17.13
2022-12-09T01:26:20.215Z,16.07
2022-12-09T01:29:23.370Z,14.50
2022-12-09T01:32:26.987Z,15.90
2022-12-09T01:35:30.507Z,14.53
2022-12-09T01:38:33.681Z,15.13
2022-12-09T01:41:38.258Z,15.40
2022-12-09T01:44:56.263Z,16.67
2022-12-09T01:48:04.734Z,15.80
2022-12-09T01:51:13.361Z,15.70
2022-12-09T01:54:17.446Z,16.13
2022-12-09T01:57:22.200Z,16.00
2022-12-09T02:00:25.713Z,16.00
2022-12-09T02:03:28.970Z,14.27
2022-12-09T02:06:32.733Z,15.00
2022-12-09T02:09:36.171Z,15.53
2022-12-09T02:12:51.836Z,14.40
2022-12-09T02:15:58.977Z,16.60
2022-12-09T02:19:13.127Z,13.53
2022-12-09T02:22:28.399Z,16.87
2022-12-09T02:25:36.479Z,16.50
2022-12-09T02:29:12.499Z,16.33
2022-12-09T02:32:42.328Z,13.97
2022-12-09T02:35:51.887Z,13.90
2022-12-09T02:38:55.228Z,14.07
2022-12-09T02:42:00.964Z,14.03
2022-12-09T02:45:08.275Z,14.70
2022-12-09T02:48:13.629Z,15.20
2022-12-09T02:51:20.542Z,14.70
2022-12-09T02:54:25.710Z,16.37
2022-12-09T02:57:31.323Z,14.10
2022-12-09T03:00:34.822Z,14.80
2022-12-09T03:03:38.252Z,13.30
2022-12-09T03:06:46.769Z,15.00
2022-12-09T03:09:59.898Z,14.53
2022-12-09T03:13:09.743Z,14.10
2022-12-09T03:16:20.893Z,13.03
2022-12-09T03:19:29.162Z,15.13
2022-12-09T03:22:36.448Z,15.83
2022-12-09T03:25:43.065Z,12.87
2022-12-09T03:28:50.168Z,14.40
2022-12-09T03:31:56.352Z,16.27
2022-12-09T03:35:04.560Z,15.37
2022-12-09T03:38:15.583Z,14.47
2022-12-09T03:41:23.621Z,14.93
2022-12-09T03:44:32.629Z,14.73
2022-12-09T03:47:35.911Z,18.57
2022-12-09T03:50:45.644Z,16.57
2022-12-09T03:53:54.602Z,16.90
2022-12-09T03:56:59.564Z,14.60
2022-12-09T04:00:04.192Z,15.73
2022-12-09T04:03:09.034Z,14.13
2022-12-09T04:06:12.539Z,14.87
2022-12-09T04:09:17.203Z,15.93
2022-12-09T04:12:20.519Z,15.50
2022-12-09T04:15:23.750Z,14.70
2022-12-09T04:18:27.227Z,17.10
2022-12-09T04:21:30.413Z,14.70
2022-12-09T04:24:34.904Z,15.10
2022-12-09T04:27:38.284Z,16.60
2022-12-09T04:30:46.703Z,15.10
2022-12-09T04:33:50.167Z,14.73
2022-12-09T04:36:53.531Z,14.50
2022-12-09T04:39:58.045Z,16.60
2022-12-09T04:43:01.300Z,16.27
2022-12-09T04:46:07.443Z,15.43
2022-12-09T04:49:10.729Z,16.07
2022-12-09T04:52:13.843Z,16.00
2022-12-09T04:55:19.275Z,16.43
2022-12-09T04:58:23.524Z,15.20
2022-12-09T05:01:31.187Z,16.00
2022-12-09T05:04:35.207Z,16.17
2022-12-09T05:07:38.832Z,17.20
2022-12-09T05:10:46.965Z,16.43
2022-12-09T05:13:50.857Z,16.37
2022-12-09T05:16:54.158Z,17.60
2022-12-09T05:19:58.044Z,15.40
2022-12-09T05:23:07.478Z,17.00
2022-12-09T05:26:15.978Z,18.63
2022-12-09T05:29:22.709Z,17.50
2022-12-09T05:32:29.248Z,15.93
2022-12-09T05:35:35.448Z,18.33
2022-12-09T05:38:44.399Z,16.03
2022-12-09T05:41:49.564Z,18.07
2022-12-09T05:44:53.156Z,18.70
2022-12-09T05:47:56.392Z,16.63
2022-12-09T05:51:00.030Z,18.07
2022-12-09T05:54:05.572Z,15.83
2022-12-09T05:57:10.242Z,18.37
2022-12-09T06:00:15.688Z,17.70
2022-12-09T06:03:19.716Z,16.77
2022-12-09T06:06:26.722Z,16.50
2022-12-09T06:09:30.904Z,16.50
2022-12-09T06:12:35.672Z,16.87
2022-12-09T06:15:39.140Z,19.83
2022-12-09T06:18:42.901Z,17.83
2022-12-09T06:21:46.670Z,17.27
2022-12-09T06:24:54.042Z,16.90
2022-12-09T06:28:01.511Z,17.60
2022-12-09T06:31:05.081Z,18.97
2022-12-09T06:34:08.976Z,15.80
2022-12-09T06:37:12.732Z,17.77
2022-12-09T06:40:16.369Z,17.10
2022-12-09T06:43:21.237Z,17.47
2022-12-09T06:46:26.167Z,17.67
2022-12-09T06:49:30.062Z,17.60
2022-12-09T06:52:33.608Z,17.03
2022-12-09T06:55:36.859Z,16.50
2022-12-09T06:58:42.463Z,16.60
2022-12-09T07:01:46.847Z,19.33
2022-12-09T07:04:57.141Z,18.90
2022-12-09T07:08:00.511Z,18.83
2022-12-09T07:11:03.814Z,17.60
2022-12-09T07:14:08.799Z,16.43
2022-12-09T07:17:17.621Z,17.47
2022-12-09T07:20:21.033Z,17.57
2022-12-09T07:23:24.277Z,15.57
2022-12-09T07:26:27.499Z,16.93
2022-12-09T07:29:33.053Z,16.30
2022-12-09T07:32:36.426Z,17.37
2022-12-09T07:35:40.082Z,15.50
2022-12-09T07:38:43.475Z,17.60
2022-12-09T07:41:48.598Z,20.43
2022-12-09T07:44:53.457Z,19.37
2022-12-09T07:47:56.861Z,17.90
2022-12-09T07:51:01.496Z,19.03
2022-12-09T07:54:05.392Z,18.43
2022-12-09T07:57:08.805Z,19.60
2022-12-09T08:00:14.764Z,17.70
2022-12-09T08:03:18.533Z,19.20
2022-12-09T08:06:23.832Z,18.63
2022-12-09T08:09:28.249Z,20.93
2022-12-09T08:12:31.968Z,20.60
2022-12-09T08:15:36.592Z,19.53
2022-12-09T08:18:40.582Z,19.87
2022-12-09T08:21:47.302Z,20.00
2022-12-09T08:24:53.121Z,22.60
2022-12-09T08:27:56.494Z,20.90
2022-12-09T08:31:08.401Z,21.03
2022-12-09T08:34:12.218Z,21.13
2022-12-09T08:37:15.846Z,20.40
2022-12-09T08:40:19.194Z,20.80
2022-12-09T08:43:22.722Z,23.80
2022-12-09T08:46:27.784Z,22.10
2022-12-09T08:49:31.427Z,20.10
2022-12-09T08:52:40.351Z,20.50
2022-12-09T08:55:44.320Z,21.00
2022-12-09T08:58:48.697Z,21.30
2022-12-09T09:01:54.519Z,22.03
2022-12-09T09:05:00.252Z,22.30
2022-12-09T09:08:03.620Z,19.83
2022-12-09T09:11:11.511Z,20.30
2022-12-09T09:14:15.910Z,21.90
2022-12-09T09:17:20.613Z,20.40
2022-12-09T09:20:24.123Z,19.40
2022-12-09T09:23:27.543Z,19.53
2022-12-09T09:26:31.070Z,21.00
2022-12-09T09:29:34.996Z,21.07
2022-12-09T09:32:39.636Z,21.37
2022-12-09T09:35:43.052Z,20.67
2022-12-09T09:38:46.531Z,19.03
2022-12-09T09:41:53.773Z,20.47
2022-12-09T09:44:58.943Z,19.03
2022-12-09T09:48:04.995Z,18.57
2022-12-09T09:51:14.537Z,19.20
2022-12-09T09:54:18.112Z,19.70
2022-12-09T09:57:28.424Z,20.90
2022-12-09T10:00:37.195Z,18.67
2022-12-09T10:03:53.437Z,17.90
2022-12-09T10:07:07.397Z,18.70
2022-12-09T10:10:24.982Z,20.93
2022-12-09T10:13:37.620Z,19.20
2022-12-09T10:16:45.623Z,19.53
2022-12-09T10:19:52.746Z,18.50
2022-12-09T10:23:04.064Z,19.17
2022-12-09T10:26:12.692Z,18.37
2022-12-09T10:29:21.372Z,20.43
2022-12-09T10:32:27.934Z,18.00
2022-12-09T10:35:33.763Z,17.80
2022-12-09T10:38:41.915Z,18.43
2022-12-09T10:42:06.390Z,18.60
2022-12-09T10:45:10.891Z,16.90
2022-12-09T10:48:23.484Z,19.10
2022-12-09T10:51:31.167Z,17.40
2022-12-09T10:54:38.644Z,17.70
2022-12-09T10:57:42.667Z,17.57
2022-12-09T11:01:00.630Z,16.67
2022-12-09T11:04:14.473Z,16.40
2022-12-09T11:07:22.760Z,18.30
2022-12-09T11:10:28.127Z,19.50
2022-12-09T11:13:42.090Z,18.73
2022-12-09T11:16:45.687Z,18.73
2022-12-09T11:19:52.630Z,19.27
2022-12-09T11:23:16.267Z,19.10
2022-12-09T11:26:25.854Z,19.37
2022-12-09T11:29:29.329Z,19.90
2022-12-09T11:32:33.144Z,19.83
2022-12-09T11:35:53.036Z,19.57
2022-12-09T11:39:23.183Z,20.00
2022-12-09T11:42:33.257Z,20.13
2022-12-09T11:45:39.653Z,21.97
2022-12-09T11:48:48.789Z,21.30
2022-12-09T11:52:08.711Z,18.47
2022-12-09T11:55:19.935Z,19.83
2022-12-09T11:58:27.237Z,19.03
2022-12-09T12:01:39.342Z,20.87
2022-12-09T12:04:53.695Z,20.80
2022-12-09T12:08:08.154Z,21.23
2022-12-09T12:11:16.071Z,19.80
2022-12-09T12:14:23.968Z,19.53
2022-12-09T12:17:33.899Z,20.33
2022-12-09T12:20:48.460Z,19.80
2022-12-09T12:24:15.553Z,20.40
2022-12-09T12:27:31.635Z,23.37
2022-12-09T12:30:42.588Z,22.10
2022-12-09T12:34:23.509Z,19.70
2022-12-09T12:37:35.715Z,19.13
2022-12-09T12:40:43.953Z,18.40
2022-12-09T12:44:23.531Z,18.80
2022-12-09T12:47:35.330Z,21.40
2022-12-09T12:50:57.765Z,21.23
2022-12-09T12:54:16.118Z,21.93
2022-12-09T12:57:26.899Z,22.03
2022-12-09T13:00:53.757Z,20.33
2022-12-09T13:04:05.000Z,23.10
2022-12-09T13:07:16.013Z,22.03
2022-12-09T13:10:25.516Z,21.20
2022-12-09T13:13:37.763Z,22.63
2022-12-09T13:16:43.180Z,21.53
2022-12-09T13:19:50.902Z,22.50
2022-12-09T13:23:01.538Z,23.20
2022-12-09T13:26:19.114Z,22.20
2022-12-09T13:29:35.592Z,23.70
2022-12-09T13:33:13.055Z,22.03
2022-12-09T13:36:22.786Z,20.33
2022-12-09T13:39:58.270Z,22.00
2022-12-09T13:43:15.234Z,21.80
2022-12-09T13:46:23.119Z,20.60
2022-12-09T13:49:28.317Z,20.80
2022-12-09T13:52:43.078Z,21.50
2022-12-09T13:55:52.974Z,22.50
2022-12-09T13:59:36.712Z,21.30
2022-12-09T14:02:44.764Z,20.33
2022-12-09T14:05:50.021Z,20.87
2022-12-09T14:08:56.351Z,21.20
2022-12-09T14:12:01.457Z,19.80
2022-12-09T14:15:28.614Z,21.63
2022-12-09T14:18:34.085Z,20.97
2022-12-09T14:21:38.878Z,21.63
2022-12-09T14:24:42.297Z,19.10
2022-12-09T14:28:37.484Z,21.00
2022-12-09T14:32:02.822Z,22.10
2022-12-09T14:35:23.815Z,21.00
2022-12-09T14:38:33.227Z,21.70
2022-12-09T14:41:41.650Z,21.87
2022-12-09T14:44:55.075Z,21.03
2022-12-09T14:47:58.742Z,21.70
2022-12-09T14:51:10.080Z,21.70
2022-12-09T14:54:16.942Z,21.47
2022-12-09T14:57:23.258Z,21.50
2022-12-09T15:00:31.446Z,20.00
2022-12-09T15:03:42.920Z,21.80
2022-12-09T15:06:49.957Z,20.87
2022-12-09T15:09:56.369Z,21.57
2022-12-09T15:12:59.590Z,23.47
2022-12-09T15:16:08.714Z,20.77
2022-12-09T15:19:43.775Z,20.33
2022-12-09T15:22:46.059Z,23.40
2022-12-09T15:25:54.816Z,21.60
2022-12-09T15:29:01.600Z,22.97
2022-12-09T15:32:22.045Z,22.30
2022-12-09T15:35:28.053Z,23.50
2022-12-09T15:38:46.533Z,21.80
2022-12-09T15:42:08.820Z,23.80
2022-12-09T15:45:15.757Z,23.90
2022-12-09T15:48:25.824Z,23.13
2022-12-09T15:51:30.537Z,23.40
2022-12-09T15:54:38.331Z,24.60
2022-12-09T15:57:43.543Z,21.20
2022-12-09T16:00:49.440Z,24.70
2022-12-09T16:03:57.210Z,24.63
2022-12-09T16:07:07.647Z,19.97
2022-12-09T16:10:13.985Z,24.43
2022-12-09T16:13:19.946Z,23.73
2022-12-09T16:16:35.421Z,23.30
2022-12-09T16:19:41.161Z,22.70
2022-12-09T16:22:45.594Z,23.63
2022-12-09T16:25:51.390Z,21.30
2022-12-09T16:29:01.095Z,23.70
2022-12-09T16:32:23.726Z,24.07
2022-12-09T16:35:35.243Z,22.67
2022-12-09T16:38:39.390Z,23.93
2022-12-09T16:41:59.246Z,25.37
2022-12-09T16:45:23.278Z,22.30
2022-12-09T16:48:29.206Z,25.47
2022-12-09T16:51:35.152Z,25.37
2022-12-09T16:54:41.822Z,22.57
2022-12-09T16:57:46.628Z,23.20
2022-12-09T17:00:52.721Z,23.00
2022-12-09T17:04:00.560Z,21.90
2022-12-09T17:07:06.526Z,21.23
2022-12-09T17:10:11.852Z,23.07
2022-12-09T17:13:17.052Z,23.37
2022-12-09T17:16:25.415Z,22.47
2022-12-09T17:19:30.588Z,25.23
2022-12-09T17:22:36.272Z,23.20
2022-12-09T17:25:40.179Z,23.97
2022-12-09T17:28:45.690Z,21.63
2022-12-09T17:31:52.310Z,21.83
2022-12-09T17:34:58.554Z,22.57
2022-12-09T17:38:06.000Z,22.10
2022-12-09T17:41:14.077Z,21.37
2022-12-09T17:44:19.988Z,22.37
2022-12-09T17:47:24.666Z,21.07
2022-12-09T17:50:28.711Z,22.70
2022-12-09T17:53:34.866Z,22.87
2022-12-09T17:56:40.981Z,24.67
2022-12-09T17:59:45.423Z,22.70
2022-12-09T18:02:49.121Z,23.60
2022-12-09T18:05:52.921Z,23.83
2022-12-09T18:08:57.743Z,24.10
2022-12-09T18:12:01.724Z,25.00
2022-12-09T18:15:06.102Z,22.93
2022-12-09T18:18:10.144Z,24.00
2022-12-09T18:21:16.259Z,25.30
2022-12-09T18:24:22.182Z,24.27
2022-12-09T18:27:25.708Z,24.53
2022-12-09T18:30:29.622Z,22.70
2022-12-09T18:33:32.774Z,24.77
2022-12-09T18:36:36.082Z,25.27
2022-12-09T18:39:41.204Z,24.77
2022-12-09T18:42:45.121Z,24.27
2022-12-09T18:45:49.002Z,24.63
2022-12-09T18:48:57.951Z,24.00
2022-12-09T18:52:03.521Z,22.33
2022-12-09T18:55:10.403Z,23.50
2022-12-09T18:58:14.117Z,24.47
2022-12-09T19:01:23.036Z,26.33
2022-12-09T19:04:28.926Z,27.83
2022-12-09T19:07:33.483Z,24.90
2022-12-09T19:10:39.306Z,26.00
2022-12-09T19:13:43.156Z,26.60
2022-12-09T19:16:47.496Z,25.00
2022-12-09T19:19:52.465Z,28.50
2022-12-09T19:23:00.040Z,27.00
2022-12-09T19:26:06.663Z,28.37
2022-12-09T19:29:12.821Z,28.17
2022-12-09T19:32:51.030Z,27.47
2022-12-09T19:35:41.243Z,25.80
2022-12-09T19:38:46.438Z,26.30
2022-12-09T19:41:53.562Z,24.30
2022-12-09T19:45:02.963Z,24.87
2022-12-09T19:48:11.374Z,25.57
2022-12-09T19:51:18.786Z,25.43
2022-12-09T19:54:28.263Z,27.00
2022-12-09T19:57:34.283Z,25.37
2022-12-09T20:00:41.603Z,27.00
2022-12-09T20:03:47.478Z,28.50
2022-12-09T20:06:52.122Z,25.70
2022-12-09T20:09:56.804Z,27.77
2022-12-09T20:13:02.367Z,27.10
2022-12-09T20:16:12.568Z,27.00
2022-12-09T20:19:16.845Z,25.80
2022-12-09T20:22:21.805Z,23.53
2022-12-09T20:25:25.850Z,26.80
2022-12-09T20:28:33.347Z,26.50
2022-12-09T20:31:39.496Z,29.27
2022-12-09T20:34:44.276Z,27.03
2022-12-09T20:37:49.047Z,25.90
2022-12-09T20:40:55.094Z,28.10
2022-12-09T20:44:02.009Z,26.80
2022-12-09T20:47:07.103Z,27.07
2022-12-09T20:50:12.329Z,28.20
2022-12-09T20:53:16.812Z,28.13
2022-12-09T20:56:22.948Z,27.53
2022-12-09T20:59:28.740Z,24.43
2022-12-09T21:02:39.615Z,26.07
2022-12-09T21:05:43.425Z,24.00
2022-12-09T21:08:50.595Z,20.93
2022-12-09T21:11:55.169Z,18.70
2022-12-09T21:15:00.973Z,19.47
2022-12-09T21:18:05.698Z,26.93
2022-12-09T21:21:10.171Z,22.23
2022-12-09T21:24:15.846Z,24.90
2022-12-09T21:27:21.166Z,26.50
2022-12-09T21:30:27.783Z,27.70
2022-12-09T21:33:31.686Z,29.07
2022-12-09T21:36:39.253Z,29.00
2022-12-09T21:39:44.061Z,28.87
2022-12-09T21:42:48.383Z,32.40
2022-12-09T21:45:56.457Z,32.37
2022-12-09T21:49:03.871Z,29.77
2022-12-09T21:52:10.135Z,29.37
2022-12-09T21:55:13.359Z,30.30
2022-12-09T21:58:17.810Z,29.40
2022-12-09T22:01:26.875Z,29.77
2022-12-09T22:04:30.465Z,29.90
2022-12-09T22:07:33.892Z,29.20
2022-12-09T22:10:38.165Z,27.30
2022-12-09T22:13:41.756Z,28.10
2022-12-09T22:16:47.463Z,28.70
2022-12-09T22:20:13.558Z,28.03
2022-12-09T22:23:14.096Z,27.73
2022-12-09T22:26:18.798Z,30.33
2022-12-09T22:29:22.404Z,28.90
2022-12-09T22:32:26.943Z,32.00
2022-12-09T22:35:30.093Z,30.77
2022-12-09T22:38:33.520Z,28.20
2022-12-09T22:41:36.987Z,29.03
2022-12-09T22:44:40.736Z,29.97
2022-12-09T22:47:45.235Z,28.77
2022-12-09T22:50:48.352Z,29.77
2022-12-09T22:53:53.256Z,29.10
2022-12-09T22:56:56.393Z,28.60
2022-12-09T22:59:59.516Z,27.87
2022-12-09T23:03:04.052Z,28.40
2022-12-09T23:06:08.007Z,25.47
2022-12-09T23:09:15.467Z,24.43
2022-12-09T23:12:18.608Z,25.87
2022-12-09T23:15:21.689Z,24.27
2022-12-09T23:18:26.216Z,22.37
2022-12-09T23:21:31.963Z,21.13
2022-12-09T23:24:35.088Z,20.37
2022-12-09T23:27:38.201Z,19.73
2022-12-09T23:30:41.366Z,18.70
2022-12-09T23:33:47.537Z,18.67
2022-12-09T23:36:50.664Z,18.93
2022-12-09T23:39:55.463Z,19.70
2022-12-09T23:42:58.566Z,20.00
2022-12-09T23:46:02.632Z,20.90
2022-12-09T23:49:07.970Z,20.03
2022-12-09T23:52:11.081Z,20.90
2022-12-09T23:55:14.195Z,20.40
2022-12-09T23:58:17.458Z,19.63
